Pagina principale
METAR-TAF:

METAR-TAF

Aeroporti :

Paganella, Italia

latitudine: 46-09N, longitudine: 011-02E, altezza: 2125 m

Osservazione

Il bollettino è stato emesso 54 minuti fa, alle 12:55 UTC
Vento calmo
Temperature 10°C
Umidità 82%
Pressione 1023 hPa
Visibilità: 3000 m
Nubi sparse ad un'altezza inferiore a 100 ft, Cumulo congesto.

METAR: LIVP 271255Z 00000KT 9999 3000SW SCT000TCU 10/07 Q1023 RMK BKN SCT230 MON CLD SCT VAL CLD SCT VIS MIN 3000SW

Ora: 15:49 (13:49 UTC)


TAF: mancante

Osservazioni e previsioni meteorologiche di più di 4000 aeroporti (messaggi METAR e TAF).

Le stazioni disponibili sono rappresentate dai dischi gialli e rossi sulla carta.

Puntare il mouse per vedere il nome della stazione.

Clicca sopra per visualizzare le osservazioni e previsioni meteorologiche.

Per cambiare la mappa : fare clic sui pulsanti verdi con una croce nera per ingrandire, il pulsante verde con un trattino per diminuire, o sulla freccia verde per le mappe adiacenti.


METAR-TAF: